Terminal Aerodrome Forecast
Issued by NWS

Home | Current Version | Previous Version | Text Only | Print | Product List | Glossary On
Versions: 1 2 3 4 5 6 7 8 9 10 11 12 13 14 15
000
FTAK31 PAJN 241700
TAFAGY
TAF
PAGY 241726Z 2418/2518 20008KT P6SM OVC060
     FM242200 21012G20KT P6SM SCT035 OVC050
     FM250300 20010KT P6SM VCSH OVC035
     FM251000 VRB05KT P6SM VCSH SCT020 OVC030
     FM251700 20007KT P6SM VCSH OVC040
      AMD LTD TO CLD VIS AND WIND=

USA.gov is the U.S. government's official web portal to all federal, state and local government web resources and services.